sensor_id;sensor_type;location;lat;lon;timestamp;temperature;humidity
22986;DHT22;11659;51.092;7.080;2022-07-25T00:01:20;21.90;97.30
22986;DHT22;11659;51.092;7.080;2022-07-25T00:03:53;21.80;97.70
22986;DHT22;11659;51.092;7.080;2022-07-25T00:06:19;21.90;97.50
22986;DHT22;11659;51.092;7.080;2022-07-25T00:08:45;21.80;97.60
22986;DHT22;11659;51.092;7.080;2022-07-25T00:11:11;21.80;97.70
22986;DHT22;11659;51.092;7.080;2022-07-25T00:13:37;21.70;97.80
22986;DHT22;11659;51.092;7.080;2022-07-25T00:16:03;21.60;97.90
22986;DHT22;11659;51.092;7.080;2022-07-25T00:18:31;21.60;98.00
22986;DHT22;11659;51.092;7.080;2022-07-25T00:20:57;21.50;98.00
22986;DHT22;11659;51.092;7.080;2022-07-25T00:23:23;21.50;98.00
22986;DHT22;11659;51.092;7.080;2022-07-25T00:25:49;21.50;98.10
22986;DHT22;11659;51.092;7.080;2022-07-25T00:28:15;21.40;98.20
22986;DHT22;11659;51.092;7.080;2022-07-25T00:30:41;21.40;98.30
22986;DHT22;11659;51.092;7.080;2022-07-25T00:33:07;21.30;98.60
22986;DHT22;11659;51.092;7.080;2022-07-25T00:35:34;21.30;98.50
22986;DHT22;11659;51.092;7.080;2022-07-25T00:38:00;21.20;98.60
22986;DHT22;11659;51.092;7.080;2022-07-25T00:40:26;21.20;98.70
22986;DHT22;11659;51.092;7.080;2022-07-25T00:42:52;21.20;98.80
22986;DHT22;11659;51.092;7.080;2022-07-25T00:45:18;21.10;98.80
22986;DHT22;11659;51.092;7.080;2022-07-25T00:47:44;21.10;99.00
22986;DHT22;11659;51.092;7.080;2022-07-25T00:50:10;21.00;99.00
22986;DHT22;11659;51.092;7.080;2022-07-25T00:52:38;21.00;99.10
22986;DHT22;11659;51.092;7.080;2022-07-25T00:55:05;20.90;99.20
22986;DHT22;11659;51.092;7.080;2022-07-25T00:57:31;20.90;99.40
22986;DHT22;11659;51.092;7.080;2022-07-25T00:59:57;20.80;99.50
22986;DHT22;11659;51.092;7.080;2022-07-25T01:02:23;20.80;99.70
22986;DHT22;11659;51.092;7.080;2022-07-25T01:04:49;20.70;99.70
22986;DHT22;11659;51.092;7.080;2022-07-25T01:07:15;20.70;99.80
22986;DHT22;11659;51.092;7.080;2022-07-25T01:09:43;20.70;99.80
22986;DHT22;11659;51.092;7.080;2022-07-25T01:12:09;20.70;99.80
22986;DHT22;11659;51.092;7.080;2022-07-25T01:14:37;20.70;99.80
22986;DHT22;11659;51.092;7.080;2022-07-25T01:17:03;20.70;99.80
22986;DHT22;11659;51.092;7.080;2022-07-25T01:19:30;20.70;99.90
22986;DHT22;11659;51.092;7.080;2022-07-25T01:21:57;20.60;99.90
22986;DHT22;11659;51.092;7.080;2022-07-25T01:24:23;20.60;99.90
22986;DHT22;11659;51.092;7.080;2022-07-25T01:26:49;20.60;99.90
22986;DHT22;11659;51.092;7.080;2022-07-25T01:29:15;20.60;99.90
22986;DHT22;11659;51.092;7.080;2022-07-25T01:31:41;20.60;99.90
22986;DHT22;11659;51.092;7.080;2022-07-25T01:34:07;20.60;99.90
22986;DHT22;11659;51.092;7.080;2022-07-25T01:36:33;20.60;99.90
22986;DHT22;11659;51.092;7.080;2022-07-25T01:39:00;20.60;99.90
22986;DHT22;11659;51.092;7.080;2022-07-25T01:41:26;20.60;99.90
22986;DHT22;11659;51.092;7.080;2022-07-25T01:43:52;20.60;99.90
22986;DHT22;11659;51.092;7.080;2022-07-25T01:46:18;20.60;99.90
22986;DHT22;11659;51.092;7.080;2022-07-25T01:48:44;20.60;99.90
22986;DHT22;11659;51.092;7.080;2022-07-25T01:51:10;20.50;99.90
22986;DHT22;11659;51.092;7.080;2022-07-25T01:53:36;20.50;99.90
22986;DHT22;11659;51.092;7.080;2022-07-25T01:56:03;20.50;99.90
22986;DHT22;11659;51.092;7.080;2022-07-25T01:58:29;20.50;99.90
22986;DHT22;11659;51.092;7.080;2022-07-25T02:00:55;20.50;99.90
22986;DHT22;11659;51.092;7.080;2022-07-25T02:03:21;20.50;99.90
22986;DHT22;11659;51.092;7.080;2022-07-25T02:05:57;20.40;99.90
22986;DHT22;11659;51.092;7.080;2022-07-25T02:08:23;20.40;99.90
22986;DHT22;11659;51.092;7.080;2022-07-25T02:10:49;20.40;99.90
22986;DHT22;11659;51.092;7.080;2022-07-25T02:13:16;20.40;99.90
22986;DHT22;11659;51.092;7.080;2022-07-25T02:15:42;20.30;99.90
22986;DHT22;11659;51.092;7.080;2022-07-25T02:18:09;20.30;99.90
22986;DHT22;11659;51.092;7.080;2022-07-25T02:20:35;20.30;99.90
22986;DHT22;11659;51.092;7.080;2022-07-25T02:23:01;20.30;99.90
22986;DHT22;11659;51.092;7.080;2022-07-25T02:25:27;20.30;99.90
22986;DHT22;11659;51.092;7.080;2022-07-25T02:27:53;20.30;99.90
22986;DHT22;11659;51.092;7.080;2022-07-25T02:30:21;20.20;99.90
22986;DHT22;11659;51.092;7.080;2022-07-25T02:32:47;20.20;99.90
22986;DHT22;11659;51.092;7.080;2022-07-25T02:35:13;20.20;99.90
22986;DHT22;11659;51.092;7.080;2022-07-25T02:37:39;20.20;99.90
22986;DHT22;11659;51.092;7.080;2022-07-25T02:40:07;20.20;99.90
22986;DHT22;11659;51.092;7.080;2022-07-25T02:42:33;20.20;99.90
22986;DHT22;11659;51.092;7.080;2022-07-25T02:45:01;20.20;99.90
22986;DHT22;11659;51.092;7.080;2022-07-25T02:47:28;20.20;99.90
22986;DHT22;11659;51.092;7.080;2022-07-25T02:49:54;20.20;99.90
22986;DHT22;11659;51.092;7.080;2022-07-25T02:52:20;20.20;99.90
22986;DHT22;11659;51.092;7.080;2022-07-25T02:54:46;20.10;99.90
22986;DHT22;11659;51.092;7.080;2022-07-25T02:57:12;20.10;99.90
22986;DHT22;11659;51.092;7.080;2022-07-25T02:59:38;20.10;99.90
22986;DHT22;11659;51.092;7.080;2022-07-25T03:02:04;20.10;99.90
22986;DHT22;11659;51.092;7.080;2022-07-25T03:04:31;20.10;99.90
22986;DHT22;11659;51.092;7.080;2022-07-25T03:06:58;20.00;99.90
22986;DHT22;11659;51.092;7.080;2022-07-25T03:09:24;20.00;99.90
22986;DHT22;11659;51.092;7.080;2022-07-25T03:11:50;20.00;99.90
22986;DHT22;11659;51.092;7.080;2022-07-25T03:14:16;20.00;99.90
22986;DHT22;11659;51.092;7.080;2022-07-25T03:16:42;20.00;99.90
22986;DHT22;11659;51.092;7.080;2022-07-25T03:19:08;20.00;99.90
22986;DHT22;11659;51.092;7.080;2022-07-25T03:21:38;20.00;99.90
22986;DHT22;11659;51.092;7.080;2022-07-25T03:24:04;20.00;99.90
22986;DHT22;11659;51.092;7.080;2022-07-25T03:26:30;20.00;99.90
22986;DHT22;11659;51.092;7.080;2022-07-25T03:28:56;20.00;99.90
22986;DHT22;11659;51.092;7.080;2022-07-25T03:31:22;19.90;99.90
22986;DHT22;11659;51.092;7.080;2022-07-25T03:33:48;19.90;99.90
22986;DHT22;11659;51.092;7.080;2022-07-25T03:36:14;19.90;99.90
22986;DHT22;11659;51.092;7.080;2022-07-25T03:38:41;19.90;99.90
22986;DHT22;11659;51.092;7.080;2022-07-25T03:41:07;19.80;99.90
22986;DHT22;11659;51.092;7.080;2022-07-25T03:43:33;19.80;99.90
22986;DHT22;11659;51.092;7.080;2022-07-25T03:45:59;19.80;99.90
22986;DHT22;11659;51.092;7.080;2022-07-25T03:48:25;19.70;99.90
22986;DHT22;11659;51.092;7.080;2022-07-25T03:50:51;19.80;99.90
22986;DHT22;11659;51.092;7.080;2022-07-25T03:53:17;19.80;99.90
22986;DHT22;11659;51.092;7.080;2022-07-25T03:55:45;19.70;99.90
22986;DHT22;11659;51.092;7.080;2022-07-25T03:58:10;19.70;99.90
22986;DHT22;11659;51.092;7.080;2022-07-25T04:00:36;19.70;99.90
22986;DHT22;11659;51.092;7.080;2022-07-25T04:03:03;19.70;99.90
22986;DHT22;11659;51.092;7.080;2022-07-25T04:05:29;19.70;99.90
22986;DHT22;11659;51.092;7.080;2022-07-25T04:07:55;19.70;99.90
22986;DHT22;11659;51.092;7.080;2022-07-25T04:10:21;19.70;99.90
22986;DHT22;11659;51.092;7.080;2022-07-25T04:12:49;19.70;99.90
22986;DHT22;11659;51.092;7.080;2022-07-25T04:15:14;19.70;99.90
22986;DHT22;11659;51.092;7.080;2022-07-25T04:17:41;19.70;99.90
22986;DHT22;11659;51.092;7.080;2022-07-25T04:20:08;19.70;99.90
22986;DHT22;11659;51.092;7.080;2022-07-25T04:22:34;19.70;99.90
22986;DHT22;11659;51.092;7.080;2022-07-25T04:25:00;19.70;99.90
22986;DHT22;11659;51.092;7.080;2022-07-25T04:27:26;19.70;99.90
22986;DHT22;11659;51.092;7.080;2022-07-25T04:29:53;19.80;99.90
22986;DHT22;11659;51.092;7.080;2022-07-25T04:32:20;19.80;99.90
22986;DHT22;11659;51.092;7.080;2022-07-25T04:34:45;19.80;99.90
22986;DHT22;11659;51.092;7.080;2022-07-25T04:37:11;19.80;99.90
22986;DHT22;11659;51.092;7.080;2022-07-25T04:39:37;19.90;99.90
22986;DHT22;11659;51.092;7.080;2022-07-25T04:42:04;19.90;99.90
22986;DHT22;11659;51.092;7.080;2022-07-25T04:44:30;19.90;99.90
22986;DHT22;11659;51.092;7.080;2022-07-25T04:46:57;19.90;99.90
22986;DHT22;11659;51.092;7.080;2022-07-25T04:49:23;20.00;99.90
22986;DHT22;11659;51.092;7.080;2022-07-25T04:51:49;20.00;99.90
22986;DHT22;11659;51.092;7.080;2022-07-25T04:54:15;20.10;99.90
22986;DHT22;11659;51.092;7.080;2022-07-25T04:56:41;20.10;99.90
22986;DHT22;11659;51.092;7.080;2022-07-25T04:59:07;20.20;99.90
22986;DHT22;11659;51.092;7.080;2022-07-25T05:01:33;20.20;99.90
22986;DHT22;11659;51.092;7.080;2022-07-25T05:04:00;20.30;99.90
22986;DHT22;11659;51.092;7.080;2022-07-25T05:06:26;20.30;99.90
22986;DHT22;11659;51.092;7.080;2022-07-25T05:08:52;20.40;99.90
22986;DHT22;11659;51.092;7.080;2022-07-25T05:11:18;20.50;99.90
22986;DHT22;11659;51.092;7.080;2022-07-25T05:13:44;20.60;99.90
22986;DHT22;11659;51.092;7.080;2022-07-25T05:16:10;20.60;99.90
22986;DHT22;11659;51.092;7.080;2022-07-25T05:18:36;20.70;99.90
22986;DHT22;11659;51.092;7.080;2022-07-25T05:21:03;20.80;99.90
22986;DHT22;11659;51.092;7.080;2022-07-25T05:23:29;20.90;99.90
22986;DHT22;11659;51.092;7.080;2022-07-25T05:25:55;21.00;99.90
22986;DHT22;11659;51.092;7.080;2022-07-25T05:28:22;21.20;99.90
22986;DHT22;11659;51.092;7.080;2022-07-25T05:30:48;21.30;99.90
22986;DHT22;11659;51.092;7.080;2022-07-25T05:33:14;21.50;99.90
22986;DHT22;11659;51.092;7.080;2022-07-25T05:35:40;21.60;99.90
22986;DHT22;11659;51.092;7.080;2022-07-25T05:38:07;21.80;99.90
22986;DHT22;11659;51.092;7.080;2022-07-25T05:40:33;21.90;99.90
22986;DHT22;11659;51.092;7.080;2022-07-25T05:42:59;22.10;99.70
22986;DHT22;11659;51.092;7.080;2022-07-25T05:45:25;22.20;99.50
22986;DHT22;11659;51.092;7.080;2022-07-25T05:47:51;22.30;99.40
22986;DHT22;11659;51.092;7.080;2022-07-25T05:50:17;22.30;99.40
22986;DHT22;11659;51.092;7.080;2022-07-25T05:52:43;22.40;99.40
22986;DHT22;11659;51.092;7.080;2022-07-25T05:55:10;22.40;99.50
22986;DHT22;11659;51.092;7.080;2022-07-25T05:57:36;22.40;99.50
22986;DHT22;11659;51.092;7.080;2022-07-25T06:00:03;22.40;99.70
22986;DHT22;11659;51.092;7.080;2022-07-25T06:02:30;22.40;99.80
22986;DHT22;11659;51.092;7.080;2022-07-25T06:04:56;22.40;99.90
22986;DHT22;11659;51.092;7.080;2022-07-25T06:07:21;22.40;99.80
22986;DHT22;11659;51.092;7.080;2022-07-25T06:09:47;22.40;99.70
22986;DHT22;11659;51.092;7.080;2022-07-25T06:12:15;22.50;99.80
22986;DHT22;11659;51.092;7.080;2022-07-25T06:14:41;22.50;99.70
22986;DHT22;11659;51.092;7.080;2022-07-25T06:17:07;22.60;99.70
22986;DHT22;11659;51.092;7.080;2022-07-25T06:19:33;22.60;99.60
22986;DHT22;11659;51.092;7.080;2022-07-25T06:21:59;22.60;99.50
22986;DHT22;11659;51.092;7.080;2022-07-25T06:24:25;22.70;99.60
22986;DHT22;11659;51.092;7.080;2022-07-25T06:26:51;22.70;99.50
22986;DHT22;11659;51.092;7.080;2022-07-25T06:29:19;22.80;99.40
22986;DHT22;11659;51.092;7.080;2022-07-25T06:31:44;22.90;99.20
22986;DHT22;11659;51.092;7.080;2022-07-25T06:34:10;23.00;98.90
22986;DHT22;11659;51.092;7.080;2022-07-25T06:36:36;23.10;98.50
22986;DHT22;11659;51.092;7.080;2022-07-25T06:39:02;23.20;98.40
22986;DHT22;11659;51.092;7.080;2022-07-25T06:41:28;23.30;98.20
22986;DHT22;11659;51.092;7.080;2022-07-25T06:43:54;23.30;98.00
22986;DHT22;11659;51.092;7.080;2022-07-25T06:46:22;23.40;97.80
22986;DHT22;11659;51.092;7.080;2022-07-25T06:48:48;23.60;97.40
22986;DHT22;11659;51.092;7.080;2022-07-25T06:51:14;23.70;97.10
22986;DHT22;11659;51.092;7.080;2022-07-25T06:53:40;23.90;96.90
22986;DHT22;11659;51.092;7.080;2022-07-25T06:56:06;24.00;96.50
22986;DHT22;11659;51.092;7.080;2022-07-25T06:58:32;24.20;96.30
22986;DHT22;11659;51.092;7.080;2022-07-25T07:00:59;24.30;96.10
22986;DHT22;11659;51.092;7.080;2022-07-25T07:03:27;24.40;95.80
22986;DHT22;11659;51.092;7.080;2022-07-25T07:05:53;24.50;95.50
22986;DHT22;11659;51.092;7.080;2022-07-25T07:08:19;24.60;95.50
22986;DHT22;11659;51.092;7.080;2022-07-25T07:10:45;24.70;95.30
22986;DHT22;11659;51.092;7.080;2022-07-25T07:13:12;24.70;95.30
22986;DHT22;11659;51.092;7.080;2022-07-25T07:15:44;24.80;95.40
22986;DHT22;11659;51.092;7.080;2022-07-25T07:18:10;24.90;95.50
22986;DHT22;11659;51.092;7.080;2022-07-25T07:20:38;24.90;95.50
22986;DHT22;11659;51.092;7.080;2022-07-25T07:23:04;25.00;95.40
22986;DHT22;11659;51.092;7.080;2022-07-25T07:25:30;25.10;95.30
22986;DHT22;11659;51.092;7.080;2022-07-25T07:27:56;25.10;95.10
22986;DHT22;11659;51.092;7.080;2022-07-25T07:30:23;25.20;95.20
22986;DHT22;11659;51.092;7.080;2022-07-25T07:32:50;25.20;95.20
22986;DHT22;11659;51.092;7.080;2022-07-25T07:35:16;25.30;95.30
22986;DHT22;11659;51.092;7.080;2022-07-25T07:37:45;25.40;95.30
22986;DHT22;11659;51.092;7.080;2022-07-25T07:40:12;25.50;95.20
22986;DHT22;11659;51.092;7.080;2022-07-25T07:42:39;25.60;95.00
22986;DHT22;11659;51.092;7.080;2022-07-25T07:45:13;25.80;94.90
22986;DHT22;11659;51.092;7.080;2022-07-25T07:47:39;25.80;94.80
22986;DHT22;11659;51.092;7.080;2022-07-25T07:50:07;25.90;94.90
22986;DHT22;11659;51.092;7.080;2022-07-25T07:52:33;26.00;94.90
22986;DHT22;11659;51.092;7.080;2022-07-25T07:55:00;26.10;94.70
22986;DHT22;11659;51.092;7.080;2022-07-25T07:57:45;26.20;94.50
22986;DHT22;11659;51.092;7.080;2022-07-25T08:00:13;26.30;94.40
22986;DHT22;11659;51.092;7.080;2022-07-25T08:02:43;26.40;94.50
22986;DHT22;11659;51.092;7.080;2022-07-25T08:05:09;26.50;94.50
22986;DHT22;11659;51.092;7.080;2022-07-25T08:07:35;26.60;94.50
22986;DHT22;11659;51.092;7.080;2022-07-25T08:10:04;26.60;94.50
22986;DHT22;11659;51.092;7.080;2022-07-25T08:12:30;26.70;94.40
22986;DHT22;11659;51.092;7.080;2022-07-25T08:14:56;26.80;94.30
22986;DHT22;11659;51.092;7.080;2022-07-25T08:17:22;26.90;94.50
22986;DHT22;11659;51.092;7.080;2022-07-25T08:19:48;27.00;94.80
22986;DHT22;11659;51.092;7.080;2022-07-25T08:22:14;27.10;94.40
22986;DHT22;11659;51.092;7.080;2022-07-25T08:24:39;27.20;94.10
22986;DHT22;11659;51.092;7.080;2022-07-25T08:27:07;27.30;94.10
22986;DHT22;11659;51.092;7.080;2022-07-25T08:29:33;27.30;93.90
22986;DHT22;11659;51.092;7.080;2022-07-25T08:31:59;27.40;93.90
22986;DHT22;11659;51.092;7.080;2022-07-25T08:34:24;27.50;93.90
22986;DHT22;11659;51.092;7.080;2022-07-25T08:36:50;27.50;93.70
22986;DHT22;11659;51.092;7.080;2022-07-25T08:39:16;27.50;93.40
22986;DHT22;11659;51.092;7.080;2022-07-25T08:41:42;27.60;93.20
22986;DHT22;11659;51.092;7.080;2022-07-25T08:44:11;27.60;93.10
22986;DHT22;11659;51.092;7.080;2022-07-25T08:46:39;27.60;93.00
22986;DHT22;11659;51.092;7.080;2022-07-25T08:49:07;27.50;93.10
22986;DHT22;11659;51.092;7.080;2022-07-25T08:51:33;27.50;93.20
22986;DHT22;11659;51.092;7.080;2022-07-25T08:54:00;27.50;93.20
22986;DHT22;11659;51.092;7.080;2022-07-25T08:56:26;27.50;93.20
22986;DHT22;11659;51.092;7.080;2022-07-25T08:58:52;27.40;93.20
22986;DHT22;11659;51.092;7.080;2022-07-25T09:01:20;27.50;93.20
22986;DHT22;11659;51.092;7.080;2022-07-25T09:03:46;27.50;92.90
22986;DHT22;11659;51.092;7.080;2022-07-25T09:06:14;27.50;92.80
22986;DHT22;11659;51.092;7.080;2022-07-25T09:08:53;27.50;92.90
22986;DHT22;11659;51.092;7.080;2022-07-25T09:11:26;27.50;92.80
22986;DHT22;11659;51.092;7.080;2022-07-25T09:13:57;27.50;92.90
22986;DHT22;11659;51.092;7.080;2022-07-25T09:16:29;27.50;92.70
22986;DHT22;11659;51.092;7.080;2022-07-25T09:19:05;27.50;92.40
22986;DHT22;11659;51.092;7.080;2022-07-25T09:21:32;27.60;92.20
22986;DHT22;11659;51.092;7.080;2022-07-25T09:24:07;27.50;92.10
22986;DHT22;11659;51.092;7.080;2022-07-25T09:26:42;27.60;92.10
22986;DHT22;11659;51.092;7.080;2022-07-25T09:29:18;27.60;92.20
22986;DHT22;11659;51.092;7.080;2022-07-25T09:31:46;27.70;92.20
22986;DHT22;11659;51.092;7.080;2022-07-25T09:34:16;27.80;92.00
22986;DHT22;11659;51.092;7.080;2022-07-25T09:36:51;27.90;92.00
22986;DHT22;11659;51.092;7.080;2022-07-25T09:39:17;28.00;91.90
22986;DHT22;11659;51.092;7.080;2022-07-25T09:41:43;28.10;91.80
22986;DHT22;11659;51.092;7.080;2022-07-25T09:44:14;28.10;91.60
22986;DHT22;11659;51.092;7.080;2022-07-25T09:46:41;28.20;91.60
22986;DHT22;11659;51.092;7.080;2022-07-25T09:49:08;28.30;91.30
22986;DHT22;11659;51.092;7.080;2022-07-25T09:51:34;28.30;91.20
22986;DHT22;11659;51.092;7.080;2022-07-25T09:54:02;28.30;91.20
22986;DHT22;11659;51.092;7.080;2022-07-25T09:56:28;28.30;91.20
22986;DHT22;11659;51.092;7.080;2022-07-25T09:58:54;28.20;91.00
22986;DHT22;11659;51.092;7.080;2022-07-25T10:01:32;28.10;91.00
22986;DHT22;11659;51.092;7.080;2022-07-25T10:04:11;28.10;91.00
22986;DHT22;11659;51.092;7.080;2022-07-25T10:06:45;28.00;91.10
22986;DHT22;11659;51.092;7.080;2022-07-25T10:09:15;27.80;91.20
22986;DHT22;11659;51.092;7.080;2022-07-25T10:12:02;27.70;91.40
22986;DHT22;11659;51.092;7.080;2022-07-25T10:14:28;27.50;91.60
22986;DHT22;11659;51.092;7.080;2022-07-25T10:16:54;27.40;91.70
22986;DHT22;11659;51.092;7.080;2022-07-25T10:19:40;27.20;91.90
22986;DHT22;11659;51.092;7.080;2022-07-25T10:22:09;27.20;92.00
22986;DHT22;11659;51.092;7.080;2022-07-25T10:24:36;27.00;92.20
22986;DHT22;11659;51.092;7.080;2022-07-25T10:27:08;26.90;92.30
22986;DHT22;11659;51.092;7.080;2022-07-25T10:29:34;26.70;92.40
22986;DHT22;11659;51.092;7.080;2022-07-25T10:32:05;26.60;92.60
22986;DHT22;11659;51.092;7.080;2022-07-25T10:34:33;26.40;92.80
22986;DHT22;11659;51.092;7.080;2022-07-25T10:37:10;26.30;93.00
22986;DHT22;11659;51.092;7.080;2022-07-25T10:39:37;26.20;93.30
22986;DHT22;11659;51.092;7.080;2022-07-25T10:42:04;26.10;93.50
22986;DHT22;11659;51.092;7.080;2022-07-25T10:44:39;25.90;93.80
22986;DHT22;11659;51.092;7.080;2022-07-25T10:47:08;25.90;94.30
22986;DHT22;11659;51.092;7.080;2022-07-25T10:49:36;25.80;94.60
22986;DHT22;11659;51.092;7.080;2022-07-25T10:52:04;25.70;95.10
22986;DHT22;11659;51.092;7.080;2022-07-25T10:54:35;25.70;95.40
22986;DHT22;11659;51.092;7.080;2022-07-25T10:57:03;25.80;95.80
22986;DHT22;11659;51.092;7.080;2022-07-25T10:59:32;25.90;96.10
22986;DHT22;11659;51.092;7.080;2022-07-25T11:01:59;26.00;95.80
22986;DHT22;11659;51.092;7.080;2022-07-25T11:04:25;26.20;95.70
22986;DHT22;11659;51.092;7.080;2022-07-25T11:06:52;26.30;95.60
22986;DHT22;11659;51.092;7.080;2022-07-25T11:09:20;26.60;95.50
22986;DHT22;11659;51.092;7.080;2022-07-25T11:11:50;26.70;95.20
22986;DHT22;11659;51.092;7.080;2022-07-25T11:14:17;26.80;94.90
22986;DHT22;11659;51.092;7.080;2022-07-25T11:16:46;26.80;94.60
22986;DHT22;11659;51.092;7.080;2022-07-25T11:19:17;27.00;94.40
22986;DHT22;11659;51.092;7.080;2022-07-25T11:21:44;27.00;93.90
22986;DHT22;11659;51.092;7.080;2022-07-25T11:24:11;27.10;93.90
22986;DHT22;11659;51.092;7.080;2022-07-25T11:26:44;27.20;93.90
22986;DHT22;11659;51.092;7.080;2022-07-25T11:29:21;27.20;93.70
22986;DHT22;11659;51.092;7.080;2022-07-25T11:31:54;27.10;93.80
22986;DHT22;11659;51.092;7.080;2022-07-25T11:34:23;27.20;93.80
22986;DHT22;11659;51.092;7.080;2022-07-25T11:36:50;27.30;93.90
22986;DHT22;11659;51.092;7.080;2022-07-25T11:39:17;27.50;93.50
22986;DHT22;11659;51.092;7.080;2022-07-25T11:41:43;27.60;93.20
22986;DHT22;11659;51.092;7.080;2022-07-25T11:44:09;27.70;93.20
22986;DHT22;11659;51.092;7.080;2022-07-25T11:46:42;27.80;92.80
22986;DHT22;11659;51.092;7.080;2022-07-25T11:49:09;27.80;92.70
22986;DHT22;11659;51.092;7.080;2022-07-25T11:51:36;27.70;92.60
22986;DHT22;11659;51.092;7.080;2022-07-25T11:54:07;27.60;92.60
22986;DHT22;11659;51.092;7.080;2022-07-25T11:56:39;27.60;92.60
22986;DHT22;11659;51.092;7.080;2022-07-25T11:59:06;27.60;92.30
22986;DHT22;11659;51.092;7.080;2022-07-25T12:01:33;27.50;92.10
22986;DHT22;11659;51.092;7.080;2022-07-25T12:04:08;27.50;92.10
22986;DHT22;11659;51.092;7.080;2022-07-25T12:06:34;27.60;92.00
22986;DHT22;11659;51.092;7.080;2022-07-25T12:09:09;27.70;91.80
22986;DHT22;11659;51.092;7.080;2022-07-25T12:11:36;27.90;91.40
22986;DHT22;11659;51.092;7.080;2022-07-25T12:14:02;27.90;91.20
22986;DHT22;11659;51.092;7.080;2022-07-25T12:16:29;27.90;91.10
22986;DHT22;11659;51.092;7.080;2022-07-25T12:18:55;27.90;90.70
22986;DHT22;11659;51.092;7.080;2022-07-25T12:21:22;27.80;90.70
22986;DHT22;11659;51.092;7.080;2022-07-25T12:23:48;27.80;90.90
22986;DHT22;11659;51.092;7.080;2022-07-25T12:26:14;27.80;90.80
22986;DHT22;11659;51.092;7.080;2022-07-25T12:28:40;27.80;90.70
22986;DHT22;11659;51.092;7.080;2022-07-25T12:31:06;27.90;90.40
22986;DHT22;11659;51.092;7.080;2022-07-25T12:33:32;27.80;89.90
22986;DHT22;11659;51.092;7.080;2022-07-25T12:35:59;27.80;90.00
22986;DHT22;11659;51.092;7.080;2022-07-25T12:38:27;27.70;89.90
22986;DHT22;11659;51.092;7.080;2022-07-25T12:40:53;27.60;90.00
22986;DHT22;11659;51.092;7.080;2022-07-25T12:43:19;27.50;90.10
22986;DHT22;11659;51.092;7.080;2022-07-25T12:45:45;27.50;90.30
22986;DHT22;11659;51.092;7.080;2022-07-25T12:48:12;27.40;90.60
22986;DHT22;11659;51.092;7.080;2022-07-25T12:50:39;27.40;90.60
22986;DHT22;11659;51.092;7.080;2022-07-25T12:53:06;27.40;90.70
22986;DHT22;11659;51.092;7.080;2022-07-25T12:55:33;27.30;90.60
22986;DHT22;11659;51.092;7.080;2022-07-25T12:57:59;27.30;90.60
22986;DHT22;11659;51.092;7.080;2022-07-25T13:00:26;27.40;91.10
22986;DHT22;11659;51.092;7.080;2022-07-25T13:02:52;27.40;90.80
22986;DHT22;11659;51.092;7.080;2022-07-25T13:05:20;27.40;90.70
22986;DHT22;11659;51.092;7.080;2022-07-25T13:07:47;27.30;90.60
22986;DHT22;11659;51.092;7.080;2022-07-25T13:10:17;27.20;90.70
22986;DHT22;11659;51.092;7.080;2022-07-25T13:12:45;27.20;90.80
22986;DHT22;11659;51.092;7.080;2022-07-25T13:15:11;27.20;90.90
22986;DHT22;11659;51.092;7.080;2022-07-25T13:17:37;27.20;91.20
22986;DHT22;11659;51.092;7.080;2022-07-25T13:20:06;27.20;91.30
22986;DHT22;11659;51.092;7.080;2022-07-25T13:22:32;27.20;91.40
22986;DHT22;11659;51.092;7.080;2022-07-25T13:24:58;27.10;91.50
22986;DHT22;11659;51.092;7.080;2022-07-25T13:27:24;27.00;91.60
22986;DHT22;11659;51.092;7.080;2022-07-25T13:29:51;27.00;91.90
22986;DHT22;11659;51.092;7.080;2022-07-25T13:32:21;27.00;91.90
22986;DHT22;11659;51.092;7.080;2022-07-25T13:34:47;26.90;92.00
22986;DHT22;11659;51.092;7.080;2022-07-25T13:37:13;26.90;92.10
22986;DHT22;11659;51.092;7.080;2022-07-25T13:39:39;26.90;92.20
22986;DHT22;11659;51.092;7.080;2022-07-25T13:42:07;26.90;92.30
22986;DHT22;11659;51.092;7.080;2022-07-25T13:44:33;26.90;92.40
22986;DHT22;11659;51.092;7.080;2022-07-25T13:47:00;27.00;92.60
22986;DHT22;11659;51.092;7.080;2022-07-25T13:49:26;27.10;92.50
22986;DHT22;11659;51.092;7.080;2022-07-25T13:51:52;27.20;92.50
22986;DHT22;11659;51.092;7.080;2022-07-25T13:54:18;27.30;92.50
22986;DHT22;11659;51.092;7.080;2022-07-25T13:56:44;27.50;92.50
22986;DHT22;11659;51.092;7.080;2022-07-25T13:59:10;27.60;92.30
22986;DHT22;11659;51.092;7.080;2022-07-25T14:01:36;27.60;92.00
22986;DHT22;11659;51.092;7.080;2022-07-25T14:04:03;27.60;91.80
22986;DHT22;11659;51.092;7.080;2022-07-25T14:06:29;27.60;91.70
22986;DHT22;11659;51.092;7.080;2022-07-25T14:08:56;27.50;91.70
22986;DHT22;11659;51.092;7.080;2022-07-25T14:11:22;27.50;91.70
22986;DHT22;11659;51.092;7.080;2022-07-25T14:13:47;27.40;91.80
22986;DHT22;11659;51.092;7.080;2022-07-25T14:16:13;27.40;91.80
22986;DHT22;11659;51.092;7.080;2022-07-25T14:18:42;27.40;91.60
22986;DHT22;11659;51.092;7.080;2022-07-25T14:21:09;27.40;91.80
22986;DHT22;11659;51.092;7.080;2022-07-25T14:23:35;27.40;91.70
22986;DHT22;11659;51.092;7.080;2022-07-25T14:26:01;27.40;91.70
22986;DHT22;11659;51.092;7.080;2022-07-25T14:28:28;27.40;91.70
22986;DHT22;11659;51.092;7.080;2022-07-25T14:30:54;27.50;91.70
22986;DHT22;11659;51.092;7.080;2022-07-25T14:33:20;27.60;91.60
22986;DHT22;11659;51.092;7.080;2022-07-25T14:35:46;27.60;91.40
22986;DHT22;11659;51.092;7.080;2022-07-25T14:38:13;27.60;91.30
22986;DHT22;11659;51.092;7.080;2022-07-25T14:40:39;27.50;91.20
22986;DHT22;11659;51.092;7.080;2022-07-25T14:43:05;27.30;91.00
22986;DHT22;11659;51.092;7.080;2022-07-25T14:45:31;27.20;91.20
22986;DHT22;11659;51.092;7.080;2022-07-25T14:47:57;27.20;91.20
22986;DHT22;11659;51.092;7.080;2022-07-25T14:50:23;27.10;91.20
22986;DHT22;11659;51.092;7.080;2022-07-25T14:52:50;27.10;91.10
22986;DHT22;11659;51.092;7.080;2022-07-25T14:55:17;27.10;91.00
22986;DHT22;11659;51.092;7.080;2022-07-25T14:57:45;27.00;90.90
22986;DHT22;11659;51.092;7.080;2022-07-25T15:00:12;26.90;90.60
22986;DHT22;11659;51.092;7.080;2022-07-25T15:02:38;26.80;90.70
22986;DHT22;11659;51.092;7.080;2022-07-25T15:05:05;26.70;90.80
22986;DHT22;11659;51.092;7.080;2022-07-25T15:07:31;26.70;91.00
22986;DHT22;11659;51.092;7.080;2022-07-25T15:09:57;26.60;91.20
22986;DHT22;11659;51.092;7.080;2022-07-25T15:12:24;26.50;91.50
22986;DHT22;11659;51.092;7.080;2022-07-25T15:14:50;26.40;91.70
22986;DHT22;11659;51.092;7.080;2022-07-25T15:17:16;26.30;91.90
22986;DHT22;11659;51.092;7.080;2022-07-25T15:19:42;26.20;92.40
22986;DHT22;11659;51.092;7.080;2022-07-25T15:22:08;26.10;92.30
22986;DHT22;11659;51.092;7.080;2022-07-25T15:24:34;26.00;92.50
22986;DHT22;11659;51.092;7.080;2022-07-25T15:27:00;26.00;92.70
22986;DHT22;11659;51.092;7.080;2022-07-25T15:29:28;25.90;92.90